createdAt,value
2023-04-26T00:01:41.345Z,6.00
2023-04-26T00:04:47.359Z,6.40
2023-04-26T00:07:51.430Z,5.60
2023-04-26T00:10:55.442Z,5.25
2023-04-26T00:13:59.974Z,7.00
2023-04-26T00:17:04.514Z,5.00
2023-04-26T00:20:11.113Z,7.40
2023-04-26T00:23:14.358Z,6.80
2023-04-26T00:26:18.006Z,7.00
2023-04-26T00:29:21.244Z,7.60
2023-04-26T00:32:24.854Z,8.00
2023-04-26T00:35:29.500Z,6.67
2023-04-26T00:38:32.842Z,8.00
2023-04-26T00:41:36.587Z,6.50
2023-04-26T00:44:40.589Z,5.60
2023-04-26T00:47:44.482Z,7.00
2023-04-26T00:50:50.038Z,5.80
2023-04-26T00:53:53.664Z,6.00
2023-04-26T00:56:57.081Z,6.00
2023-04-26T01:00:00.446Z,9.00
2023-04-26T01:03:03.984Z,8.00
2023-04-26T01:06:08.918Z,6.20
2023-04-26T01:09:15.684Z,6.00
2023-04-26T01:12:20.617Z,6.00
2023-04-26T01:15:25.250Z,6.40
2023-04-26T01:18:29.033Z,6.00
2023-04-26T01:21:34.643Z,4.00
2023-04-26T01:24:40.380Z,5.40
2023-04-26T01:27:44.129Z,8.00
2023-04-26T01:30:48.067Z,6.25
2023-04-26T01:33:51.434Z,5.80
2023-04-26T01:36:56.256Z,6.00
2023-04-26T01:40:01.036Z,4.60
2023-04-26T01:43:04.580Z,6.00
2023-04-26T01:46:08.149Z,5.00
2023-04-26T01:49:11.581Z,6.60
2023-04-26T01:52:14.889Z,5.60
2023-04-26T01:55:19.611Z,5.00
2023-04-26T01:58:24.279Z,5.20
2023-04-26T02:01:27.620Z,5.25
2023-04-26T02:04:30.961Z,7.40
2023-04-26T02:07:34.300Z,5.60
2023-04-26T02:10:39.632Z,4.50
2023-04-26T02:13:43.831Z,6.00
2023-04-26T02:16:47.136Z,5.20
2023-04-26T02:19:51.083Z,5.00
2023-04-26T02:22:54.317Z,7.00
2023-04-26T02:25:58.951Z,8.00
2023-04-26T02:29:02.291Z,6.00
2023-04-26T02:32:06.044Z,6.00
2023-04-26T02:35:10.830Z,5.00
2023-04-26T02:38:14.113Z,7.60
2023-04-26T02:41:19.164Z,6.60
2023-04-26T02:44:22.563Z,6.50
2023-04-26T02:47:26.610Z,8.00
2023-04-26T02:50:29.998Z,7.40
2023-04-26T02:53:33.262Z,5.75
2023-04-26T02:56:37.863Z,4.25
2023-04-26T02:59:41.447Z,6.00
2023-04-26T03:02:44.864Z,6.40
2023-04-26T03:05:48.270Z,8.00
2023-04-26T03:08:51.781Z,6.00
2023-04-26T03:11:56.936Z,10.00
2023-04-26T03:15:00.404Z,8.80
2023-04-26T03:18:04.357Z,8.60
2023-04-26T03:21:08.371Z,8.00
2023-04-26T03:24:12.494Z,9.80
2023-04-26T03:27:17.241Z,8.00
2023-04-26T03:30:21.048Z,11.00
2023-04-26T03:33:25.139Z,6.40
2023-04-26T03:36:28.663Z,7.67
2023-04-26T03:39:32.051Z,8.80
2023-04-26T03:42:37.157Z,8.00
2023-04-26T03:45:40.499Z,7.00
2023-04-26T03:48:44.122Z,8.40
2023-04-26T03:51:47.357Z,8.00
2023-04-26T03:54:51.985Z,7.00
2023-04-26T03:57:56.647Z,9.40
2023-04-26T04:01:00.460Z,8.80
2023-04-26T04:04:04.065Z,8.00
2023-04-26T04:07:07.841Z,9.00
2023-04-26T04:10:12.028Z,8.00
2023-04-26T04:13:18.239Z,6.40
2023-04-26T04:16:21.979Z,7.25
2023-04-26T04:19:25.640Z,6.00
2023-04-26T04:22:29.236Z,8.50
2023-04-26T04:25:33.107Z,8.00
2023-04-26T04:28:41.600Z,6.80
2023-04-26T04:31:45.283Z,7.40
2023-04-26T04:34:49.647Z,10.00
2023-04-26T04:37:53.156Z,6.20
2023-04-26T04:40:57.070Z,11.20
2023-04-26T04:44:02.370Z,9.00
2023-04-26T04:47:05.791Z,7.00
2023-04-26T04:50:10.081Z,8.60
2023-04-26T04:53:13.965Z,8.60
2023-04-26T04:56:18.570Z,6.00
2023-04-26T04:59:23.463Z,7.60
2023-04-26T05:02:27.314Z,9.25
2023-04-26T05:05:30.905Z,10.00
2023-04-26T05:08:34.171Z,7.00
2023-04-26T05:11:40.009Z,8.00
2023-04-26T05:14:46.726Z,7.60
2023-04-26T05:17:50.294Z,10.60
2023-04-26T05:20:58.563Z,7.00
2023-04-26T05:24:03.413Z,7.75
2023-04-26T05:27:06.736Z,10.00
2023-04-26T05:30:21.218Z,8.00
2023-04-26T05:33:42.948Z,8.00
2023-04-26T05:36:55.221Z,9.40
2023-04-26T05:39:58.963Z,10.60
2023-04-26T05:43:03.229Z,6.75
2023-04-26T05:46:08.758Z,7.00
2023-04-26T05:49:12.055Z,6.00
2023-04-26T05:52:16.007Z,8.60
2023-04-26T05:55:20.180Z,7.40
2023-04-26T05:58:23.598Z,7.00
2023-04-26T06:01:28.589Z,8.60
2023-04-26T06:04:32.720Z,6.50
2023-04-26T06:07:46.647Z,5.20
2023-04-26T06:10:49.908Z,6.00
2023-04-26T06:13:53.635Z,6.00
2023-04-26T06:16:59.099Z,6.00
2023-04-26T06:20:05.215Z,7.40
2023-04-26T06:23:08.577Z,4.00
2023-04-26T06:26:12.485Z,9.00
2023-04-26T06:29:15.767Z,5.00
2023-04-26T06:32:20.756Z,6.00
2023-04-26T06:35:25.391Z,6.40
2023-04-26T06:38:29.170Z,7.75
2023-04-26T06:41:33.407Z,7.25
2023-04-26T06:44:36.711Z,6.00
2023-04-26T06:47:42.769Z,7.60
2023-04-26T06:50:46.752Z,7.00
2023-04-26T06:53:50.226Z,3.50
2023-04-26T06:56:53.638Z,6.20
2023-04-26T06:59:57.178Z,5.00
2023-04-26T07:03:02.223Z,6.33
2023-04-26T07:06:06.430Z,5.00
2023-04-26T07:09:09.674Z,4.00
2023-04-26T07:12:13.369Z,4.00
2023-04-26T07:15:16.665Z,4.00
2023-04-26T07:18:21.317Z,5.00
2023-04-26T07:21:24.774Z,6.00
2023-04-26T07:24:28.247Z,4.00
2023-04-26T07:27:32.876Z,5.40
2023-04-26T07:30:36.501Z,4.00
2023-04-26T07:33:41.256Z,6.00
2023-04-26T07:36:44.723Z,4.00
2023-04-26T07:39:48.048Z,3.00
2023-04-26T07:42:51.554Z,5.00
2023-04-26T07:45:54.965Z,3.60
2023-04-26T07:48:59.602Z,4.00
2023-04-26T07:52:03.135Z,5.00
2023-04-26T07:55:07.334Z,4.60
2023-04-26T07:58:14.601Z,5.00
2023-04-26T08:01:17.874Z,5.80
2023-04-26T08:04:33.011Z,1.75
2023-04-26T08:07:36.500Z,3.00
2023-04-26T08:10:41.980Z,2.20
2023-04-26T08:13:45.344Z,4.00
2023-04-26T08:16:48.784Z,4.00
2023-04-26T08:19:53.541Z,4.00
2023-04-26T08:22:57.994Z,4.00
2023-04-26T08:26:01.486Z,4.60
2023-04-26T08:29:04.833Z,2.40
2023-04-26T08:32:08.068Z,2.00
2023-04-26T08:35:13.214Z,3.00
2023-04-26T08:38:16.644Z,3.00
2023-04-26T08:41:24.624Z,4.00
2023-04-26T08:44:29.310Z,4.00
2023-04-26T08:47:41.999Z,3.80
2023-04-26T08:50:47.458Z,3.40
2023-04-26T08:53:54.227Z,2.00
2023-04-26T08:57:00.498Z,3.00
2023-04-26T09:00:05.840Z,4.00
2023-04-26T09:03:09.718Z,3.60
2023-04-26T09:06:15.802Z,4.00
2023-04-26T09:09:20.522Z,3.00
2023-04-26T09:12:23.736Z,3.00
2023-04-26T09:15:28.466Z,4.00
2023-04-26T09:18:33.901Z,2.80
2023-04-26T09:21:44.396Z,4.00
2023-04-26T09:24:49.255Z,3.00
2023-04-26T09:27:52.571Z,3.20
2023-04-26T09:30:56.030Z,4.00
2023-04-26T09:34:00.201Z,3.00
2023-04-26T09:37:04.892Z,6.00
2023-04-26T09:40:20.068Z,5.00
2023-04-26T09:43:24.184Z,5.00
2023-04-26T09:46:27.459Z,6.00
2023-04-26T09:49:33.801Z,4.00
2023-04-26T09:52:45.155Z,4.60
2023-04-26T09:55:49.719Z,4.60
2023-04-26T09:59:01.338Z,3.00
2023-04-26T10:02:05.154Z,5.00
2023-04-26T10:05:09.880Z,3.00
2023-04-26T10:08:14.593Z,4.00
2023-04-26T10:11:19.694Z,3.00
2023-04-26T10:14:23.522Z,5.00
2023-04-26T10:17:26.897Z,4.00
2023-04-26T10:20:30.880Z,4.00
2023-04-26T10:23:36.627Z,4.00
2023-04-26T10:26:52.101Z,6.00
2023-04-26T10:30:14.602Z,6.00
2023-04-26T10:33:18.637Z,3.00
2023-04-26T10:36:22.421Z,3.00
2023-04-26T10:39:28.279Z,3.00
2023-04-26T10:42:32.446Z,3.00
2023-04-26T10:45:36.166Z,3.40
2023-04-26T10:48:39.553Z,3.00
2023-04-26T10:51:43.174Z,5.00
2023-04-26T10:54:56.051Z,4.00
2023-04-26T10:57:59.357Z,4.60
2023-04-26T11:01:06.461Z,2.60
2023-04-26T11:04:11.640Z,5.00
2023-04-26T11:07:16.294Z,4.50
2023-04-26T11:10:25.298Z,3.00
2023-04-26T11:13:28.844Z,4.40
2023-04-26T11:16:32.186Z,3.00
2023-04-26T11:19:35.995Z,3.00
2023-04-26T11:22:41.898Z,2.80
2023-04-26T11:25:47.104Z,3.25
2023-04-26T11:28:50.908Z,2.80
2023-04-26T11:31:55.655Z,3.00
2023-04-26T11:35:02.079Z,5.00
2023-04-26T11:38:06.633Z,3.33
2023-04-26T11:41:11.473Z,3.00
2023-04-26T11:44:19.114Z,3.80
2023-04-26T11:47:23.785Z,6.40
2023-04-26T11:50:28.168Z,4.00
2023-04-26T11:53:37.661Z,3.80
2023-04-26T11:56:42.405Z,6.00
2023-04-26T11:59:46.118Z,5.60
2023-04-26T12:02:50.362Z,8.00
2023-04-26T12:05:56.187Z,3.60
2023-04-26T12:08:59.581Z,2.75
2023-04-26T12:12:06.530Z,4.00
2023-04-26T12:15:13.213Z,3.00
2023-04-26T12:18:18.229Z,4.00
2023-04-26T12:21:22.111Z,4.60
2023-04-26T12:24:26.618Z,4.00
2023-04-26T12:27:31.441Z,5.75
2023-04-26T12:30:35.030Z,2.80
2023-04-26T12:33:38.947Z,6.00
2023-04-26T12:36:44.652Z,5.40
2023-04-26T12:39:48.216Z,4.00
2023-04-26T12:42:52.905Z,5.00
2023-04-26T12:45:56.940Z,6.60
2023-04-26T12:49:00.180Z,5.00
2023-04-26T12:52:03.994Z,6.00
2023-04-26T12:55:08.990Z,5.00
2023-04-26T12:58:13.954Z,6.00
2023-04-26T13:01:18.045Z,6.00
2023-04-26T13:04:21.562Z,8.00
2023-04-26T13:07:25.279Z,3.00
2023-04-26T13:10:28.623Z,6.00
2023-04-26T13:13:43.011Z,6.60
2023-04-26T13:16:47.572Z,6.40
2023-04-26T13:19:50.973Z,4.00
2023-04-26T13:22:54.245Z,3.60
2023-04-26T13:25:57.637Z,3.00
2023-04-26T13:29:02.367Z,3.00
2023-04-26T13:32:06.161Z,3.00
2023-04-26T13:35:10.091Z,2.20
2023-04-26T13:38:13.619Z,6.00
2023-04-26T13:41:17.122Z,2.00
2023-04-26T13:44:22.094Z,3.00
2023-04-26T13:47:25.535Z,4.00
2023-04-26T13:50:28.910Z,2.80
2023-04-26T13:53:32.222Z,3.00
2023-04-26T13:56:35.988Z,4.00
2023-04-26T13:59:40.712Z,4.00
2023-04-26T14:02:44.078Z,4.00
2023-04-26T14:05:47.902Z,3.60
2023-04-26T14:08:51.902Z,3.40
2023-04-26T14:12:07.342Z,3.00
2023-04-26T14:15:13.683Z,2.40
2023-04-26T14:18:18.060Z,3.60
2023-04-26T14:21:21.814Z,2.00
2023-04-26T14:24:25.163Z,3.00
2023-04-26T14:27:28.650Z,3.00
2023-04-26T14:30:33.322Z,5.50
2023-04-26T14:33:36.744Z,4.00
2023-04-26T14:36:39.995Z,3.00
2023-04-26T14:39:43.806Z,3.00
2023-04-26T14:42:47.120Z,5.00
2023-04-26T14:45:52.085Z,6.00
2023-04-26T14:48:55.513Z,3.20
2023-04-26T14:51:58.798Z,4.00
2023-04-26T14:55:02.021Z,5.00
2023-04-26T14:58:05.633Z,3.40
2023-04-26T15:01:10.655Z,5.00
2023-04-26T15:04:14.101Z,3.50
2023-04-26T15:07:28.677Z,5.00
2023-04-26T15:10:35.073Z,5.50
2023-04-26T15:13:38.401Z,4.40
2023-04-26T15:16:43.092Z,4.00
2023-04-26T15:19:46.676Z,5.60
2023-04-26T15:22:50.009Z,5.60
2023-04-26T15:25:53.282Z,3.00
2023-04-26T15:28:56.754Z,4.50
2023-04-26T15:32:02.383Z,3.00
2023-04-26T15:35:07.431Z,7.00
2023-04-26T15:38:10.780Z,4.00
2023-04-26T15:41:14.160Z,5.00
2023-04-26T15:44:17.598Z,4.00
2023-04-26T15:47:22.401Z,4.00
2023-04-26T15:50:25.879Z,5.00
2023-04-26T15:53:29.125Z,2.00
2023-04-26T15:56:32.649Z,3.00
2023-04-26T15:59:36.017Z,2.80
2023-04-26T16:02:40.906Z,2.00
2023-04-26T16:05:44.170Z,3.00
2023-04-26T16:08:47.578Z,3.00
2023-04-26T16:11:51.071Z,2.00
2023-04-26T16:14:54.419Z,2.00
2023-04-26T16:17:59.120Z,4.60
2023-04-26T16:21:06.325Z,3.60
2023-04-26T16:24:11.612Z,2.25
2023-04-26T16:27:14.911Z,5.00
2023-04-26T16:30:18.182Z,4.20
2023-04-26T16:33:23.610Z,4.00
2023-04-26T16:36:27.692Z,4.60
2023-04-26T16:39:31.921Z,4.00
2023-04-26T16:42:35.247Z,5.00
2023-04-26T16:45:38.856Z,4.00
2023-04-26T16:48:43.832Z,5.00
2023-04-26T16:51:53.431Z,5.00
2023-04-26T16:54:57.458Z,5.00
2023-04-26T16:58:01.022Z,3.00
2023-04-26T17:01:04.915Z,5.00
2023-04-26T17:04:12.358Z,3.00
2023-04-26T17:07:17.354Z,2.60
2023-04-26T17:10:20.945Z,3.00
2023-04-26T17:13:29.237Z,3.80
2023-04-26T17:16:32.882Z,3.00
2023-04-26T17:19:37.586Z,4.00
2023-04-26T17:22:41.171Z,4.00
2023-04-26T17:25:44.457Z,5.00
2023-04-26T17:28:47.723Z,4.00
2023-04-26T17:31:51.036Z,3.00
2023-04-26T17:34:55.767Z,4.00
2023-04-26T17:37:59.058Z,5.00
2023-04-26T17:41:02.414Z,3.00
2023-04-26T17:44:05.833Z,2.50
2023-04-26T17:47:09.077Z,2.80
2023-04-26T17:50:13.788Z,4.00
2023-04-26T17:53:18.060Z,3.00
2023-04-26T17:56:21.961Z,4.00
2023-04-26T17:59:25.424Z,3.25
2023-04-26T18:02:28.840Z,3.00
2023-04-26T18:05:33.638Z,6.60
2023-04-26T18:08:37.573Z,4.75
2023-04-26T18:11:41.086Z,6.00
2023-04-26T18:14:45.621Z,4.50
2023-04-26T18:17:49.008Z,6.75
2023-04-26T18:20:53.634Z,5.00
2023-04-26T18:23:57.263Z,3.00
2023-04-26T18:27:01.106Z,4.00
2023-04-26T18:30:05.074Z,7.60
2023-04-26T18:33:08.448Z,4.40
2023-04-26T18:36:13.141Z,4.40
2023-04-26T18:39:16.771Z,7.80
2023-04-26T18:42:20.128Z,5.00
2023-04-26T18:45:23.448Z,5.00
2023-04-26T18:48:26.731Z,4.00
2023-04-26T18:51:31.471Z,3.50
2023-04-26T18:54:35.025Z,4.00
2023-04-26T18:57:38.281Z,6.00
2023-04-26T19:00:42.228Z,5.00
2023-04-26T19:03:45.773Z,7.00
2023-04-26T19:06:50.522Z,7.00
2023-04-26T19:09:54.870Z,5.00
2023-04-26T19:12:59.281Z,5.00
2023-04-26T19:16:04.796Z,7.40
2023-04-26T19:19:08.549Z,6.00
2023-04-26T19:22:14.007Z,5.00
2023-04-26T19:25:20.699Z,7.00
2023-04-26T19:28:24.166Z,9.00
2023-04-26T19:31:27.948Z,6.60
2023-04-26T19:34:32.280Z,6.00
2023-04-26T19:37:37.048Z,5.00
2023-04-26T19:40:42.581Z,7.00
2023-04-26T19:43:45.972Z,6.00
2023-04-26T19:46:49.296Z,8.00
2023-04-26T19:49:53.988Z,5.40
2023-04-26T19:52:58.678Z,7.00
2023-04-26T19:56:02.255Z,8.40
2023-04-26T19:59:06.192Z,7.75
2023-04-26T20:02:09.825Z,9.00
2023-04-26T20:05:13.304Z,7.00
2023-04-26T20:08:18.014Z,5.60
2023-04-26T20:11:22.378Z,7.40
2023-04-26T20:14:26.106Z,8.20
2023-04-26T20:17:29.379Z,7.50
2023-04-26T20:20:32.990Z,6.20
2023-04-26T20:23:37.906Z,9.00
2023-04-26T20:26:41.445Z,10.00
2023-04-26T20:29:44.651Z,12.60
2023-04-26T20:32:48.023Z,10.60
2023-04-26T20:35:51.285Z,11.40
2023-04-26T20:38:56.003Z,11.75
2023-04-26T20:41:59.195Z,13.00
2023-04-26T20:45:02.667Z,12.00
2023-04-26T20:48:07.311Z,11.40
2023-04-26T20:51:10.723Z,11.00
2023-04-26T20:54:15.545Z,14.00
2023-04-26T20:57:19.154Z,12.40
2023-04-26T21:00:22.756Z,12.20
2023-04-26T21:03:26.385Z,12.00
2023-04-26T21:06:29.787Z,11.40
2023-04-26T21:09:34.379Z,14.00
2023-04-26T21:12:38.223Z,14.40
2023-04-26T21:15:41.597Z,13.25
2023-04-26T21:18:44.837Z,12.25
2023-04-26T21:21:48.281Z,12.00
2023-04-26T21:24:53.483Z,11.00
2023-04-26T21:27:58.325Z,10.75
2023-04-26T21:31:05.796Z,14.00
2023-04-26T21:34:09.528Z,15.40
2023-04-26T21:37:12.845Z,16.40
2023-04-26T21:40:17.443Z,15.67
2023-04-26T21:43:22.065Z,16.20
2023-04-26T21:46:26.263Z,15.00
2023-04-26T21:49:29.600Z,15.00
2023-04-26T21:52:32.924Z,17.00
2023-04-26T21:55:37.567Z,16.00
2023-04-26T21:58:41.001Z,17.00
2023-04-26T22:01:44.283Z,18.40
2023-04-26T22:04:47.519Z,18.00
2023-04-26T22:07:50.822Z,18.00
2023-04-26T22:10:55.653Z,18.20
2023-04-26T22:13:58.955Z,18.25
2023-04-26T22:17:02.267Z,16.00
2023-04-26T22:20:06.458Z,15.00
2023-04-26T22:23:10.307Z,15.80
2023-04-26T22:26:14.909Z,16.00
2023-04-26T22:29:18.134Z,16.80
2023-04-26T22:32:21.561Z,14.80
2023-04-26T22:35:25.420Z,17.00
2023-04-26T22:38:28.850Z,19.50
2023-04-26T22:41:33.509Z,19.00
2023-04-26T22:44:36.865Z,17.00
2023-04-26T22:47:40.445Z,17.40
2023-04-26T22:50:43.871Z,17.50
2023-04-26T22:53:47.159Z,18.50
2023-04-26T22:56:52.455Z,18.50
2023-04-26T22:59:55.880Z,19.00
2023-04-26T23:02:59.167Z,16.60
2023-04-26T23:06:04.512Z,17.00
2023-04-26T23:09:07.852Z,16.00
2023-04-26T23:12:12.551Z,13.50
2023-04-26T23:15:15.863Z,14.00
2023-04-26T23:18:19.795Z,13.25
2023-04-26T23:21:23.053Z,15.00
2023-04-26T23:24:26.372Z,16.50
2023-04-26T23:27:30.914Z,18.00
2023-04-26T23:30:34.132Z,15.20
2023-04-26T23:33:37.436Z,16.20
2023-04-26T23:36:41.261Z,17.40
2023-04-26T23:39:44.506Z,16.67
2023-04-26T23:42:49.200Z,17.50
2023-04-26T23:45:52.933Z,17.80
2023-04-26T23:48:56.187Z,16.60
2023-04-26T23:51:59.506Z,19.40
2023-04-26T23:55:03.533Z,17.00
2023-04-26T23:58:08.396Z,14.50
